AFA88 RCFN-RCKH
Flight info
| Callsign | AFA88 |
|---|---|
| Flight time | 0h 46m |
| Altitude | 8000 |
| Route | GAMMA V14 LATIS B591 HCN N0155/A070 |
| Aircraft | DA42/L-SDFGRY/S |
Departure
| Time | 2026-04-26 12:57 |
|---|---|
| Airport | Taitung Airport (RCFN) |
Arrival
| Time | 2026-04-26 13:43 |
|---|---|
| Airport | Kaohsiung International Airport (RCKH) |
| Time | Latitude | Longitude | Altitude | Speed | Heading |
|---|---|---|---|---|---|
| 2026-04-26 12:43 | 22.75947 | 121.10316 | 141 ft | 0 kts | 41° |
| 2026-04-26 12:52 | 22.75947 | 121.10343 | 141 ft | 8 kts | 130° |
| 2026-04-26 12:52 | 22.75890 | 121.10353 | 138 ft | 13 kts | 219° |
| 2026-04-26 12:52 | 22.75821 | 121.10292 | 138 ft | 13 kts | 215° |
| 2026-04-26 12:53 | 22.75753 | 121.10234 | 139 ft | 12 kts | 219° |
| 2026-04-26 12:53 | 22.75689 | 121.10179 | 139 ft | 12 kts | 219° |
| 2026-04-26 12:53 | 22.75616 | 121.10116 | 140 ft | 16 kts | 219° |
| 2026-04-26 12:53 | 22.75524 | 121.10037 | 140 ft | 16 kts | 218° |
| 2026-04-26 12:54 | 22.75445 | 121.09970 | 141 ft | 25 kts | 221° |
| 2026-04-26 12:54 | 22.75326 | 121.09865 | 142 ft | 22 kts | 219° |
| 2026-04-26 12:54 | 22.75222 | 121.09798 | 142 ft | 11 kts | 159° |
| 2026-04-26 12:54 | 22.75207 | 121.09812 | 143 ft | 0 kts | 129° |
| 2026-04-26 12:55 | 22.75204 | 121.09816 | 143 ft | 7 kts | 129° |
| 2026-04-26 12:55 | 22.75164 | 121.09871 | 142 ft | 10 kts | 101° |
| 2026-04-26 12:55 | 22.75183 | 121.09900 | 142 ft | 0 kts | 39° |
| 2026-04-26 12:56 | 22.75213 | 121.09924 | 142 ft | 28 kts | 39° |
| 2026-04-26 12:56 | 22.75525 | 121.10193 | 143 ft | 81 kts | 38° |
| 2026-04-26 12:56 | 22.75969 | 121.10582 | 380 ft | 84 kts | 37° |
| 2026-04-26 12:56 | 22.76425 | 121.11000 | 636 ft | 89 kts | 42° |
| 2026-04-26 12:57 | 22.76893 | 121.11456 | 872 ft | 91 kts | 55° |
| 2026-04-26 12:57 | 22.77021 | 121.12120 | 1115 ft | 91 kts | 103° |
| 2026-04-26 12:57 | 22.76671 | 121.12676 | 1402 ft | 93 kts | 144° |
| 2026-04-26 12:58 | 22.75400 | 121.12648 | 1972 ft | 96 kts | 197° |
| 2026-04-26 12:58 | 22.74762 | 121.12397 | 2226 ft | 98 kts | 197° |
| 2026-04-26 12:58 | 22.74090 | 121.12135 | 2384 ft | 111 kts | 196° |
| 2026-04-26 12:58 | 22.73335 | 121.11868 | 2621 ft | 115 kts | 195° |
| 2026-04-26 12:59 | 22.72567 | 121.11616 | 2896 ft | 116 kts | 196° |
| 2026-04-26 12:59 | 22.71793 | 121.11373 | 3184 ft | 117 kts | 197° |
| 2026-04-26 12:59 | 22.71008 | 121.11132 | 3461 ft | 117 kts | 196° |
| 2026-04-26 12:59 | 22.70216 | 121.10892 | 3712 ft | 119 kts | 197° |
| 2026-04-26 13:00 | 22.69418 | 121.10656 | 3945 ft | 120 kts | 190° |
| 2026-04-26 13:00 | 22.68621 | 121.10780 | 4204 ft | 115 kts | 151° |
| 2026-04-26 13:00 | 22.67915 | 121.11176 | 4470 ft | 114 kts | 151° |
| 2026-04-26 13:00 | 22.67221 | 121.11571 | 4739 ft | 114 kts | 149° |
| 2026-04-26 13:01 | 22.66508 | 121.11978 | 5023 ft | 115 kts | 150° |
| 2026-04-26 13:01 | 22.65806 | 121.12381 | 5279 ft | 116 kts | 151° |
| 2026-04-26 13:01 | 22.65085 | 121.12792 | 5535 ft | 118 kts | 150° |
| 2026-04-26 13:01 | 22.64333 | 121.13159 | 5788 ft | 120 kts | 161° |
| 2026-04-26 13:02 | 22.63543 | 121.13454 | 6049 ft | 121 kts | 160° |
| 2026-04-26 13:02 | 22.62746 | 121.13753 | 6312 ft | 121 kts | 161° |
| 2026-04-26 13:02 | 22.61917 | 121.13889 | 6530 ft | 123 kts | 193° |
| 2026-04-26 13:02 | 22.61183 | 121.13438 | 6770 ft | 123 kts | 215° |
| 2026-04-26 13:03 | 22.60413 | 121.13028 | 7034 ft | 123 kts | 206° |
| 2026-04-26 13:03 | 22.59623 | 121.12670 | 7298 ft | 124 kts | 206° |
| 2026-04-26 13:03 | 22.58822 | 121.12327 | 7555 ft | 124 kts | 206° |
| 2026-04-26 13:03 | 22.58024 | 121.11983 | 7824 ft | 123 kts | 205° |
| 2026-04-26 13:04 | 22.57218 | 121.11639 | 7998 ft | 132 kts | 205° |
| 2026-04-26 13:04 | 22.56309 | 121.11247 | 8007 ft | 149 kts | 205° |
| 2026-04-26 13:04 | 22.55309 | 121.10820 | 8012 ft | 160 kts | 204° |
| 2026-04-26 13:04 | 22.54248 | 121.10371 | 8013 ft | 165 kts | 204° |
| 2026-04-26 13:05 | 22.53173 | 121.09916 | 8009 ft | 167 kts | 204° |
| 2026-04-26 13:05 | 22.52085 | 121.09457 | 8012 ft | 169 kts | 205° |
| 2026-04-26 13:05 | 22.50988 | 121.08989 | 8009 ft | 170 kts | 206° |
| 2026-04-26 13:05 | 22.49886 | 121.08518 | 7998 ft | 170 kts | 205° |
| 2026-04-26 13:06 | 22.48783 | 121.08050 | 7995 ft | 170 kts | 203° |
| 2026-04-26 13:06 | 22.47678 | 121.07590 | 8003 ft | 170 kts | 206° |
| 2026-04-26 13:06 | 22.46574 | 121.07115 | 7993 ft | 171 kts | 206° |
| 2026-04-26 13:06 | 22.45475 | 121.06639 | 8003 ft | 170 kts | 205° |
| 2026-04-26 13:07 | 22.44368 | 121.06176 | 8004 ft | 170 kts | 202° |
| 2026-04-26 13:07 | 22.43264 | 121.05714 | 7996 ft | 170 kts | 205° |
| 2026-04-26 13:07 | 22.42164 | 121.05242 | 7994 ft | 170 kts | 204° |
| 2026-04-26 13:07 | 22.41064 | 121.04776 | 7997 ft | 170 kts | 204° |
| 2026-04-26 13:08 | 22.40337 | 121.04472 | 7996 ft | 169 kts | 205° |
| 2026-04-26 13:08 | 22.38875 | 121.03844 | 8000 ft | 169 kts | 206° |
| 2026-04-26 13:08 | 22.37782 | 121.03374 | 7986 ft | 166 kts | 205° |
| 2026-04-26 13:08 | 22.37098 | 121.03086 | 7987 ft | 154 kts | 204° |
| 2026-04-26 13:09 | 22.35888 | 121.02456 | 7956 ft | 135 kts | 252° |
| 2026-04-26 13:09 | 22.36114 | 121.01940 | 7997 ft | 132 kts | 341° |
| 2026-04-26 13:09 | 22.36531 | 121.02642 | 7996 ft | 153 kts | 128° |
| 2026-04-26 13:09 | 22.35581 | 121.02720 | 7989 ft | 150 kts | 180° |
| 2026-04-26 13:10 | 22.35374 | 121.03573 | 7985 ft | 145 kts | 29° |
| 2026-04-26 13:10 | 22.35925 | 121.03125 | 7981 ft | 136 kts | 246° |
| 2026-04-26 13:10 | 22.35096 | 121.02561 | 7992 ft | 147 kts | 210° |
| 2026-04-26 13:10 | 22.34145 | 121.02051 | 7982 ft | 158 kts | 206° |
| 2026-04-26 13:11 | 22.33103 | 121.01604 | 7998 ft | 165 kts | 204° |
| 2026-04-26 13:11 | 22.32018 | 121.01144 | 7994 ft | 170 kts | 205° |
| 2026-04-26 13:11 | 22.30931 | 121.00637 | 7994 ft | 170 kts | 216° |
| 2026-04-26 13:11 | 22.30194 | 120.99677 | 7999 ft | 167 kts | 243° |
| 2026-04-26 13:12 | 22.29661 | 120.98556 | 7995 ft | 168 kts | 245° |
| 2026-04-26 13:12 | 22.29141 | 120.97420 | 7998 ft | 169 kts | 246° |
| 2026-04-26 13:12 | 22.28616 | 120.96293 | 7996 ft | 167 kts | 245° |
| 2026-04-26 13:12 | 22.28088 | 120.95174 | 7986 ft | 167 kts | 246° |
| 2026-04-26 13:13 | 22.27568 | 120.94069 | 7993 ft | 164 kts | 245° |
| 2026-04-26 13:13 | 22.27057 | 120.92970 | 7985 ft | 164 kts | 245° |
| 2026-04-26 13:13 | 22.26555 | 120.91871 | 7987 ft | 163 kts | 245° |
| 2026-04-26 13:13 | 22.26058 | 120.90772 | 7987 ft | 163 kts | 245° |
| 2026-04-26 13:14 | 22.25652 | 120.89645 | 7986 ft | 160 kts | 265° |
| 2026-04-26 13:14 | 22.25684 | 120.88457 | 7988 ft | 158 kts | 275° |
| 2026-04-26 13:14 | 22.25779 | 120.87288 | 7988 ft | 159 kts | 276° |
| 2026-04-26 13:14 | 22.25878 | 120.86088 | 7989 ft | 158 kts | 275° |
| 2026-04-26 13:15 | 22.25989 | 120.84911 | 7987 ft | 157 kts | 279° |
| 2026-04-26 13:15 | 22.26190 | 120.83752 | 7983 ft | 157 kts | 281° |
| 2026-04-26 13:15 | 22.26386 | 120.82623 | 7988 ft | 155 kts | 281° |
| 2026-04-26 13:15 | 22.26573 | 120.81485 | 7987 ft | 152 kts | 280° |
| 2026-04-26 13:16 | 22.26755 | 120.80356 | 7980 ft | 153 kts | 280° |
| 2026-04-26 13:16 | 22.26936 | 120.79225 | 7991 ft | 154 kts | 279° |
| 2026-04-26 13:16 | 22.27118 | 120.78085 | 7993 ft | 154 kts | 280° |
| 2026-04-26 13:16 | 22.27302 | 120.76933 | 7994 ft | 157 kts | 279° |
| 2026-04-26 13:17 | 22.27675 | 120.74592 | 7987 ft | 161 kts | 280° |
| 2026-04-26 13:17 | 22.27867 | 120.73404 | 7991 ft | 159 kts | 279° |
| 2026-04-26 13:18 | 22.28251 | 120.71029 | 7973 ft | 160 kts | 283° |
| 2026-04-26 13:18 | 22.28686 | 120.69910 | 7980 ft | 163 kts | 295° |
| 2026-04-26 13:18 | 22.29693 | 120.67745 | 7983 ft | 161 kts | 296° |
| 2026-04-26 13:19 | 22.30199 | 120.66663 | 7978 ft | 161 kts | 296° |
| 2026-04-26 13:19 | 22.30702 | 120.65581 | 7979 ft | 162 kts | 296° |
| 2026-04-26 13:19 | 22.31205 | 120.64493 | 7975 ft | 162 kts | 296° |
| 2026-04-26 13:19 | 22.31707 | 120.63418 | 7980 ft | 159 kts | 296° |
| 2026-04-26 13:20 | 22.32204 | 120.62356 | 7991 ft | 158 kts | 295° |
| 2026-04-26 13:20 | 22.32699 | 120.61304 | 7991 ft | 157 kts | 296° |
| 2026-04-26 13:20 | 22.33192 | 120.60256 | 7990 ft | 156 kts | 296° |
| 2026-04-26 13:20 | 22.33681 | 120.59214 | 7991 ft | 155 kts | 295° |
| 2026-04-26 13:21 | 22.34166 | 120.58192 | 7994 ft | 155 kts | 296° |
| 2026-04-26 13:21 | 22.34496 | 120.57491 | 7994 ft | 155 kts | 295° |
| 2026-04-26 13:21 | 22.35146 | 120.56118 | 7993 ft | 155 kts | 296° |
| 2026-04-26 13:21 | 22.35634 | 120.55083 | 7992 ft | 155 kts | 295° |
| 2026-04-26 13:22 | 22.36125 | 120.54049 | 7993 ft | 155 kts | 296° |
| 2026-04-26 13:22 | 22.36615 | 120.53005 | 7995 ft | 157 kts | 296° |
| 2026-04-26 13:22 | 22.37106 | 120.51944 | 7995 ft | 158 kts | 295° |
| 2026-04-26 13:22 | 22.37600 | 120.50886 | 7983 ft | 157 kts | 296° |
| 2026-04-26 13:23 | 22.38099 | 120.49831 | 7982 ft | 158 kts | 296° |
| 2026-04-26 13:23 | 22.38598 | 120.48769 | 7983 ft | 158 kts | 295° |
| 2026-04-26 13:23 | 22.39099 | 120.47714 | 7984 ft | 157 kts | 296° |
| 2026-04-26 13:23 | 22.39597 | 120.46664 | 7983 ft | 157 kts | 295° |
| 2026-04-26 13:24 | 22.40095 | 120.45615 | 7984 ft | 156 kts | 296° |
| 2026-04-26 13:24 | 22.40592 | 120.44568 | 7984 ft | 157 kts | 296° |
| 2026-04-26 13:24 | 22.41089 | 120.43513 | 7982 ft | 157 kts | 296° |
| 2026-04-26 13:24 | 22.41598 | 120.42469 | 7983 ft | 158 kts | 297° |
| 2026-04-26 13:25 | 22.42122 | 120.41428 | 7985 ft | 157 kts | 297° |
| 2026-04-26 13:25 | 22.42617 | 120.40370 | 7986 ft | 157 kts | 295° |
| 2026-04-26 13:25 | 22.43110 | 120.39306 | 7973 ft | 159 kts | 296° |
| 2026-04-26 13:25 | 22.43607 | 120.38232 | 7973 ft | 160 kts | 296° |
| 2026-04-26 13:26 | 22.44107 | 120.37152 | 7977 ft | 161 kts | 296° |
| 2026-04-26 13:26 | 22.44609 | 120.36065 | 7976 ft | 162 kts | 296° |
| 2026-04-26 13:26 | 22.45110 | 120.34979 | 7976 ft | 161 kts | 296° |
| 2026-04-26 13:26 | 22.45620 | 120.33866 | 7771 ft | 168 kts | 296° |
| 2026-04-26 13:27 | 22.46141 | 120.32734 | 7550 ft | 169 kts | 296° |
| 2026-04-26 13:27 | 22.46659 | 120.31611 | 7340 ft | 169 kts | 296° |
| 2026-04-26 13:27 | 22.47183 | 120.30470 | 7127 ft | 169 kts | 296° |
| 2026-04-26 13:27 | 22.47705 | 120.29339 | 6916 ft | 168 kts | 295° |
| 2026-04-26 13:28 | 22.48224 | 120.28212 | 6703 ft | 167 kts | 296° |
| 2026-04-26 13:28 | 22.48741 | 120.27090 | 6494 ft | 166 kts | 296° |
| 2026-04-26 13:28 | 22.49254 | 120.25973 | 6280 ft | 166 kts | 296° |
| 2026-04-26 13:28 | 22.49798 | 120.24878 | 6055 ft | 165 kts | 299° |
| 2026-04-26 13:29 | 22.50377 | 120.23804 | 5857 ft | 166 kts | 300° |
| 2026-04-26 13:29 | 22.50767 | 120.23095 | 5709 ft | 166 kts | 301° |
| 2026-04-26 13:29 | 22.51567 | 120.21671 | 5415 ft | 165 kts | 301° |
| 2026-04-26 13:29 | 22.52128 | 120.20609 | 5197 ft | 158 kts | 299° |
| 2026-04-26 13:30 | 22.52640 | 120.19601 | 5048 ft | 148 kts | 299° |
| 2026-04-26 13:30 | 22.53119 | 120.18645 | 4902 ft | 142 kts | 298° |
| 2026-04-26 13:30 | 22.53605 | 120.17736 | 4748 ft | 138 kts | 301° |
| 2026-04-26 13:30 | 22.54101 | 120.16861 | 4595 ft | 135 kts | 302° |
| 2026-04-26 13:31 | 22.54593 | 120.16003 | 4448 ft | 134 kts | 302° |
| 2026-04-26 13:31 | 22.55083 | 120.15155 | 4298 ft | 133 kts | 302° |
| 2026-04-26 13:31 | 22.55577 | 120.14304 | 4150 ft | 134 kts | 302° |
| 2026-04-26 13:31 | 22.56076 | 120.13449 | 4004 ft | 135 kts | 302° |
| 2026-04-26 13:32 | 22.56582 | 120.12588 | 3856 ft | 136 kts | 302° |
| 2026-04-26 13:32 | 22.57090 | 120.11727 | 3711 ft | 136 kts | 302° |
| 2026-04-26 13:32 | 22.57603 | 120.10867 | 3566 ft | 136 kts | 302° |
| 2026-04-26 13:32 | 22.58121 | 120.10006 | 3421 ft | 136 kts | 301° |
| 2026-04-26 13:33 | 22.58639 | 120.09149 | 3276 ft | 136 kts | 301° |
| 2026-04-26 13:33 | 22.58903 | 120.08189 | 3130 ft | 134 kts | 273° |
| 2026-04-26 13:33 | 22.58973 | 120.07178 | 3005 ft | 137 kts | 271° |
| 2026-04-26 13:33 | 22.59037 | 120.06152 | 2995 ft | 135 kts | 271° |
| 2026-04-26 13:34 | 22.59102 | 120.05156 | 2997 ft | 131 kts | 271° |
| 2026-04-26 13:34 | 22.59165 | 120.04177 | 2999 ft | 131 kts | 271° |
| 2026-04-26 13:34 | 22.59133 | 120.03209 | 2995 ft | 128 kts | 248° |
| 2026-04-26 13:34 | 22.58800 | 120.02702 | 2997 ft | 125 kts | 217° |
| 2026-04-26 13:35 | 22.57710 | 120.02554 | 3005 ft | 127 kts | 156° |
| 2026-04-26 13:35 | 22.57127 | 120.03243 | 2999 ft | 129 kts | 111° |
| 2026-04-26 13:35 | 22.57178 | 120.04200 | 3000 ft | 133 kts | 66° |
| 2026-04-26 13:35 | 22.57819 | 120.04917 | 3004 ft | 134 kts | 40° |
| 2026-04-26 13:36 | 22.58309 | 120.05775 | 3003 ft | 141 kts | 74° |
| 2026-04-26 13:36 | 22.58495 | 120.06837 | 3000 ft | 147 kts | 90° |
| 2026-04-26 13:36 | 22.58506 | 120.07969 | 2998 ft | 153 kts | 92° |
| 2026-04-26 13:36 | 22.58491 | 120.09129 | 3000 ft | 156 kts | 93° |
| 2026-04-26 13:37 | 22.58456 | 120.10304 | 3002 ft | 157 kts | 94° |
| 2026-04-26 13:37 | 22.58418 | 120.11490 | 3000 ft | 158 kts | 94° |
| 2026-04-26 13:37 | 22.58382 | 120.12686 | 2998 ft | 159 kts | 93° |
| 2026-04-26 13:37 | 22.58345 | 120.13879 | 3002 ft | 159 kts | 94° |
| 2026-04-26 13:38 | 22.58309 | 120.15076 | 3000 ft | 159 kts | 93° |
| 2026-04-26 13:38 | 22.58273 | 120.16270 | 3001 ft | 159 kts | 94° |
| 2026-04-26 13:38 | 22.58235 | 120.17478 | 2873 ft | 162 kts | 94° |
| 2026-04-26 13:38 | 22.58197 | 120.18697 | 2668 ft | 162 kts | 93° |
| 2026-04-26 13:39 | 22.58163 | 120.19917 | 2459 ft | 162 kts | 94° |
| 2026-04-26 13:39 | 22.58125 | 120.21128 | 2246 ft | 158 kts | 94° |
| 2026-04-26 13:39 | 22.58091 | 120.22253 | 2047 ft | 139 kts | 94° |
| 2026-04-26 13:39 | 22.58062 | 120.23240 | 1882 ft | 126 kts | 94° |
| 2026-04-26 13:40 | 22.58035 | 120.24168 | 1724 ft | 122 kts | 95° |
| 2026-04-26 13:40 | 22.58009 | 120.25086 | 1565 ft | 121 kts | 94° |
| 2026-04-26 13:40 | 22.57982 | 120.25976 | 1407 ft | 116 kts | 94° |
| 2026-04-26 13:40 | 22.57958 | 120.26794 | 1266 ft | 103 kts | 95° |
| 2026-04-26 13:41 | 22.57935 | 120.27531 | 1136 ft | 97 kts | 95° |
| 2026-04-26 13:41 | 22.57914 | 120.28262 | 1015 ft | 97 kts | 94° |
| 2026-04-26 13:41 | 22.57891 | 120.29007 | 892 ft | 99 kts | 95° |
| 2026-04-26 13:41 | 22.57866 | 120.29749 | 772 ft | 99 kts | 93° |
| 2026-04-26 13:42 | 22.57844 | 120.30506 | 644 ft | 101 kts | 94° |
| 2026-04-26 13:42 | 22.57819 | 120.31274 | 503 ft | 102 kts | 94° |
| 2026-04-26 13:42 | 22.57796 | 120.32028 | 371 ft | 101 kts | 94° |
| 2026-04-26 13:42 | 22.57775 | 120.32795 | 253 ft | 102 kts | 91° |
| 2026-04-26 13:43 | 22.57754 | 120.33567 | 111 ft | 102 kts | 93° |
| 2026-04-26 13:43 | 22.57730 | 120.34270 | 35 ft | 76 kts | 91° |
| 2026-04-26 13:43 | 22.57719 | 120.34640 | 33 ft | 25 kts | 91° |
| 2026-04-26 13:43 | 22.57716 | 120.34763 | 34 ft | 16 kts | 93° |
| 2026-04-26 13:44 | 22.57708 | 120.34877 | 34 ft | 15 kts | 115° |
| 2026-04-26 13:44 | 22.57627 | 120.34912 | 33 ft | 13 kts | 182° |
| 2026-04-26 13:44 | 22.57554 | 120.34934 | 32 ft | 11 kts | 124° |
| 2026-04-26 13:44 | 22.57511 | 120.34981 | 33 ft | 8 kts | 200° |
| 2026-04-26 13:45 | 22.57442 | 120.34969 | 33 ft | 14 kts | 186° |
| 2026-04-26 13:45 | 22.57409 | 120.34942 | 33 ft | 4 kts | 320° |
| 2026-04-26 13:45 | 22.57421 | 120.34941 | 33 ft | 1 kts | 357° |